Tempe, AZ

4:49 AM MST on August 20, 2014 (GMT -0700)
D'Amore Engineering | Change Station
CLOSE
Current Station
Personal Weather Station
Location: Tempe, AZ
Elevation: 1181 ft
Nearby Weather Stations

Elev 1181 ft 33.43 °N, 111.90 °W | Updated 1 second ago

Partly Cloudy
Partly Cloudy
75.9 °F
Feels Like 78 °F
N
5.0
Wind Variable Wind from East
Gusts 7.0 mph

Today
High -- | Low -- °F
--% Chance of Precip.
Yesterday
High -- | Low -- °F
Precip. -- in
5:53 AM 7:07 PM
Waning Crescent, 22% visible
Pressure 29.81 in
Visibility 10.0 miles
Clouds Few 15000 ft
Heat Index 78 °F
Dew Point 65 °F
Humidity 69%
Rainfall 0.00 in
Snow Depth Not available.
UV 0 out of 12
Pollen 4.30 out of 12
PM2.5 Good
Flu Activity Not available.
METAR KPHX 201051Z 09007KT 10SM FEW150 24/20 A2986 RMK AO2 SLP094 T02440200

More Conditions Fewer Conditions

Pressure 29.81 in
Visibility 10.0 miles
Clouds Few 15000 ft
Heat Index 78 °F
Dew Point 65 °F
Humidity 69%
Rainfall 0.00 in
Snow Depth Not available.
UV 0 out of 12
Pollen 4.30 out of 12
PM2.5 Good
Flu Activity Not available.
METAR KPHX 201051Z 09007KT 10SM FEW150 24/20 A2986 RMK AO2 SLP094 T02440200

More Conditions Fewer Conditions

10-Day Weather Forecast

Almanac

Astronomy

Aug. 20, 2014 Rise Set
Actual Time 5:53 AM MST 7:07 PM MST
Civil Twilight 5:27 AM MST 7:33 PM MST
Nautical Twilight 4:56 AM MST 8:04 PM MST
Astronomical Twilight 4:24 AM MST 8:36 PM MST
Moon 1:42 AM MST 3:50 PM MST
Length of Visible Light 14h 05m
Length of Day
13h 14m
Tomorrow will be 1m 52s shorter.
Waning Crescent, 22% of the Moon is Illuminated
Today
Waning Crescent
Aug 25
New
Sep 2
First Quarter
Sep 8
Full
Sep 15
Last Quarter

Today's Extremes

State Highs State Lows

Community

WunderPhotos

Upload Photos

1,745,611 photos uploaded!

WunderBlogs® & News

By Dr. Jeff Masters
Director of Meteorology, Weather Underground
By Kari Strenfel
Meteorologist, Weather Underground
By Christopher C. Burt
Weather Historian, Weather Underground
August 20, 2014
August 20, 2014
August 20, 2014

Nearby

Air Quality

  Air Quality AQ Index Pollutant
Yesterday Good
OZONE
Yesterday Good
PM10
Current Good
PM2.5
Wednesday Good
OZONE
Wednesday Good
PM10
Wednesday Good
CO
Thursday Moderate
OZONE
Thursday Good
PM10
Thursday Good
CO

Snow Depth

Station Depth Elevation
Workman Creek 2 in 6900 ft
Promontory 0 in 7930 ft
Heber 0 in 7640 ft
Mormon Mountain 0 in 7500 ft
White Horse Lake 1 in 7180 ft

Earthquake Activity

City Distance Mag. Time & Date
No recent earthquake activity has been reported nearby.
Minimum magnitude displayed is 2.5.

Coastal Water Temperatures

Place Temperature
No Stations Reporting

Nearby Weather Stations